sensor_id;sensor_type;location;lat;lon;timestamp;P1;durP1;ratioP1;P2;durP2;ratioP2
62268;SDS011;56517;51.634;5.566;2023-05-10T00:02:07;31.63;;;13.93;;
62268;SDS011;56517;51.634;5.566;2023-05-10T00:05:59;24.60;;;13.30;;
62268;SDS011;56517;51.634;5.566;2023-05-10T00:07:20;29.70;;;14.85;;
62268;SDS011;56517;51.634;5.566;2023-05-10T00:08:44;36.03;;;16.27;;
62268;SDS011;56517;51.634;5.566;2023-05-10T00:10:06;35.53;;;16.85;;
62268;SDS011;56517;51.634;5.566;2023-05-10T00:11:29;31.92;;;14.48;;
62268;SDS011;56517;51.634;5.566;2023-05-10T00:12:53;36.47;;;15.73;;
62268;SDS011;56517;51.634;5.566;2023-05-10T00:14:14;41.45;;;16.98;;
62268;SDS011;56517;51.634;5.566;2023-05-10T00:15:38;34.78;;;15.77;;
62268;SDS011;56517;51.634;5.566;2023-05-10T00:16:59;36.45;;;16.23;;
62268;SDS011;56517;51.634;5.566;2023-05-10T00:18:23;42.05;;;17.08;;
62268;SDS011;56517;51.634;5.566;2023-05-10T00:19:47;35.05;;;16.33;;
62268;SDS011;56517;51.634;5.566;2023-05-10T00:21:11;46.55;;;17.67;;
62268;SDS011;56517;51.634;5.566;2023-05-10T00:22:33;56.67;;;20.30;;
62268;SDS011;56517;51.634;5.566;2023-05-10T00:23:59;49.75;;;19.67;;
62268;SDS011;56517;51.634;5.566;2023-05-10T00:25:23;42.90;;;18.40;;
62268;SDS011;56517;51.634;5.566;2023-05-10T00:26:47;74.18;;;24.00;;
62268;SDS011;56517;51.634;5.566;2023-05-10T00:28:08;58.72;;;22.33;;
62268;SDS011;56517;51.634;5.566;2023-05-10T00:29:35;63.80;;;22.27;;
62268;SDS011;56517;51.634;5.566;2023-05-10T00:30:56;60.33;;;21.13;;
62268;SDS011;56517;51.634;5.566;2023-05-10T00:32:17;60.47;;;21.30;;
62268;SDS011;56517;51.634;5.566;2023-05-10T00:33:44;51.70;;;19.85;;
62268;SDS011;56517;51.634;5.566;2023-05-10T00:35:16;60.00;;;21.67;;
62268;SDS011;56517;51.634;5.566;2023-05-10T00:36:37;66.32;;;22.92;;
62268;SDS011;56517;51.634;5.566;2023-05-10T00:38:09;54.53;;;20.00;;
62268;SDS011;56517;51.634;5.566;2023-05-10T00:39:50;53.38;;;20.08;;
62268;SDS011;56517;51.634;5.566;2023-05-10T00:41:17;35.95;;;17.60;;
62268;SDS011;56517;51.634;5.566;2023-05-10T00:42:41;43.97;;;18.58;;
62268;SDS011;56517;51.634;5.566;2023-05-10T00:44:08;63.70;;;22.33;;
62268;SDS011;56517;51.634;5.566;2023-05-10T00:47:56;41.72;;;16.88;;
62268;SDS011;56517;51.634;5.566;2023-05-10T00:49:50;38.17;;;17.58;;
62268;SDS011;56517;51.634;5.566;2023-05-10T00:51:16;38.85;;;17.63;;
62268;SDS011;56517;51.634;5.566;2023-05-10T00:52:37;40.65;;;17.45;;
62268;SDS011;56517;51.634;5.566;2023-05-10T00:54:01;43.45;;;18.40;;
62268;SDS011;56517;51.634;5.566;2023-05-10T00:55:26;57.75;;;21.42;;
62268;SDS011;56517;51.634;5.566;2023-05-10T00:56:49;64.22;;;23.00;;
62268;SDS011;56517;51.634;5.566;2023-05-10T00:58:13;64.53;;;22.58;;
62268;SDS011;56517;51.634;5.566;2023-05-10T00:59:37;62.70;;;23.42;;
62268;SDS011;56517;51.634;5.566;2023-05-10T01:02:45;48.25;;;20.02;;
62268;SDS011;56517;51.634;5.566;2023-05-10T01:04:06;72.80;;;24.13;;
62268;SDS011;56517;51.634;5.566;2023-05-10T01:05:33;71.00;;;23.90;;
62268;SDS011;56517;51.634;5.566;2023-05-10T01:07:03;70.68;;;23.90;;
62268;SDS011;56517;51.634;5.566;2023-05-10T01:08:24;76.43;;;26.38;;
62268;SDS011;56517;51.634;5.566;2023-05-10T01:09:51;68.05;;;23.40;;
62268;SDS011;56517;51.634;5.566;2023-05-10T01:11:22;50.67;;;19.95;;
62268;SDS011;56517;51.634;5.566;2023-05-10T01:12:43;55.50;;;20.95;;
62268;SDS011;56517;51.634;5.566;2023-05-10T01:14:07;47.15;;;21.27;;
62268;SDS011;56517;51.634;5.566;2023-05-10T01:15:31;46.85;;;20.63;;
62268;SDS011;56517;51.634;5.566;2023-05-10T01:16:54;45.45;;;20.02;;
62268;SDS011;56517;51.634;5.566;2023-05-10T01:18:17;54.33;;;22.97;;
62268;SDS011;56517;51.634;5.566;2023-05-10T01:19:43;49.53;;;21.73;;
62268;SDS011;56517;51.634;5.566;2023-05-10T01:24:06;58.25;;;23.85;;
62268;SDS011;56517;51.634;5.566;2023-05-10T01:27:02;69.13;;;25.65;;
62268;SDS011;56517;51.634;5.566;2023-05-10T01:32:04;73.72;;;24.52;;
62268;SDS011;56517;51.634;5.566;2023-05-10T01:33:39;70.18;;;25.83;;
62268;SDS011;56517;51.634;5.566;2023-05-10T01:35:06;66.85;;;25.83;;
62268;SDS011;56517;51.634;5.566;2023-05-10T01:36:32;72.35;;;26.35;;
62268;SDS011;56517;51.634;5.566;2023-05-10T01:38:06;73.82;;;29.17;;
62268;SDS011;56517;51.634;5.566;2023-05-10T01:42:33;67.55;;;26.00;;
62268;SDS011;56517;51.634;5.566;2023-05-10T01:46:39;62.30;;;24.92;;
62268;SDS011;56517;51.634;5.566;2023-05-10T01:48:10;60.90;;;25.17;;
62268;SDS011;56517;51.634;5.566;2023-05-10T01:49:32;60.47;;;24.38;;
62268;SDS011;56517;51.634;5.566;2023-05-10T01:50:58;62.03;;;26.48;;
62268;SDS011;56517;51.634;5.566;2023-05-10T01:52:25;74.40;;;27.23;;
62268;SDS011;56517;51.634;5.566;2023-05-10T01:53:46;75.80;;;26.88;;
62268;SDS011;56517;51.634;5.566;2023-05-10T01:55:09;77.60;;;28.33;;
62268;SDS011;56517;51.634;5.566;2023-05-10T01:56:33;84.85;;;29.17;;
62268;SDS011;56517;51.634;5.566;2023-05-10T01:58:03;80.80;;;28.73;;
62268;SDS011;56517;51.634;5.566;2023-05-10T01:59:34;81.50;;;28.92;;
62268;SDS011;56517;51.634;5.566;2023-05-10T02:01:01;98.25;;;32.47;;
62268;SDS011;56517;51.634;5.566;2023-05-10T02:02:24;93.20;;;31.48;;
62268;SDS011;56517;51.634;5.566;2023-05-10T02:03:51;91.25;;;31.15;;
62268;SDS011;56517;51.634;5.566;2023-05-10T02:05:12;91.88;;;29.63;;
62268;SDS011;56517;51.634;5.566;2023-05-10T02:06:40;85.82;;;31.00;;
62268;SDS011;56517;51.634;5.566;2023-05-10T02:08:03;98.15;;;31.00;;
62268;SDS011;56517;51.634;5.566;2023-05-10T02:09:28;95.80;;;32.03;;
62268;SDS011;56517;51.634;5.566;2023-05-10T02:10:54;94.13;;;31.20;;
62268;SDS011;56517;51.634;5.566;2023-05-10T02:12:16;93.47;;;30.67;;
62268;SDS011;56517;51.634;5.566;2023-05-10T02:13:38;94.50;;;31.02;;
62268;SDS011;56517;51.634;5.566;2023-05-10T02:15:02;84.10;;;30.65;;
62268;SDS011;56517;51.634;5.566;2023-05-10T02:16:25;102.57;;;32.50;;
62268;SDS011;56517;51.634;5.566;2023-05-10T02:19:10;86.65;;;29.50;;
62268;SDS011;56517;51.634;5.566;2023-05-10T02:20:32;107.03;;;33.42;;
62268;SDS011;56517;51.634;5.566;2023-05-10T02:21:54;109.07;;;33.20;;
62268;SDS011;56517;51.634;5.566;2023-05-10T02:23:26;103.40;;;31.35;;
62268;SDS011;56517;51.634;5.566;2023-05-10T02:24:50;137.90;;;40.90;;
62268;SDS011;56517;51.634;5.566;2023-05-10T02:26:11;102.80;;;31.03;;
62268;SDS011;56517;51.634;5.566;2023-05-10T02:27:38;109.97;;;32.65;;
62268;SDS011;56517;51.634;5.566;2023-05-10T02:29:02;104.50;;;32.83;;
62268;SDS011;56517;51.634;5.566;2023-05-10T02:31:47;108.25;;;32.33;;
62268;SDS011;56517;51.634;5.566;2023-05-10T02:33:08;104.18;;;32.22;;
62268;SDS011;56517;51.634;5.566;2023-05-10T02:34:29;110.47;;;34.38;;
62268;SDS011;56517;51.634;5.566;2023-05-10T02:35:51;122.38;;;34.20;;
62268;SDS011;56517;51.634;5.566;2023-05-10T02:37:15;113.40;;;33.33;;
62268;SDS011;56517;51.634;5.566;2023-05-10T02:38:37;101.35;;;32.30;;
62268;SDS011;56517;51.634;5.566;2023-05-10T02:39:58;109.82;;;34.03;;
62268;SDS011;56517;51.634;5.566;2023-05-10T02:41:22;104.47;;;30.88;;
62268;SDS011;56517;51.634;5.566;2023-05-10T02:42:45;97.15;;;32.38;;
62268;SDS011;56517;51.634;5.566;2023-05-10T02:44:10;99.57;;;32.42;;
62268;SDS011;56517;51.634;5.566;2023-05-10T02:45:34;100.57;;;32.70;;
62268;SDS011;56517;51.634;5.566;2023-05-10T02:46:56;106.45;;;34.47;;
62268;SDS011;56517;51.634;5.566;2023-05-10T02:48:17;103.68;;;35.42;;
62268;SDS011;56517;51.634;5.566;2023-05-10T02:49:38;107.28;;;34.65;;
62268;SDS011;56517;51.634;5.566;2023-05-10T02:51:04;120.13;;;37.63;;
62268;SDS011;56517;51.634;5.566;2023-05-10T02:52:27;103.60;;;34.47;;
62268;SDS011;56517;51.634;5.566;2023-05-10T02:53:48;94.32;;;33.50;;
62268;SDS011;56517;51.634;5.566;2023-05-10T02:55:12;114.10;;;36.20;;
62268;SDS011;56517;51.634;5.566;2023-05-10T02:56:35;95.93;;;32.80;;
62268;SDS011;56517;51.634;5.566;2023-05-10T02:58:03;107.95;;;35.60;;
62268;SDS011;56517;51.634;5.566;2023-05-10T02:59:28;86.72;;;32.47;;
62268;SDS011;56517;51.634;5.566;2023-05-10T03:00:49;108.35;;;35.78;;
62268;SDS011;56517;51.634;5.566;2023-05-10T03:02:10;95.25;;;32.67;;
62268;SDS011;56517;51.634;5.566;2023-05-10T03:03:31;79.28;;;30.17;;
62268;SDS011;56517;51.634;5.566;2023-05-10T03:04:52;97.97;;;33.47;;
62268;SDS011;56517;51.634;5.566;2023-05-10T03:06:13;81.53;;;30.83;;
62268;SDS011;56517;51.634;5.566;2023-05-10T03:07:37;91.90;;;32.00;;
62268;SDS011;56517;51.634;5.566;2023-05-10T03:08:58;89.78;;;33.63;;
62268;SDS011;56517;51.634;5.566;2023-05-10T03:10:27;89.00;;;31.70;;
62268;SDS011;56517;51.634;5.566;2023-05-10T03:11:55;102.32;;;33.58;;
62268;SDS011;56517;51.634;5.566;2023-05-10T03:14:49;90.43;;;31.40;;
62268;SDS011;56517;51.634;5.566;2023-05-10T03:16:24;77.38;;;30.45;;
62268;SDS011;56517;51.634;5.566;2023-05-10T03:17:52;78.25;;;31.05;;
62268;SDS011;56517;51.634;5.566;2023-05-10T03:19:27;79.05;;;30.27;;
62268;SDS011;56517;51.634;5.566;2023-05-10T03:21:01;100.38;;;33.53;;
62268;SDS011;56517;51.634;5.566;2023-05-10T03:22:24;80.93;;;30.95;;
62268;SDS011;56517;51.634;5.566;2023-05-10T03:23:47;92.20;;;33.90;;
62268;SDS011;56517;51.634;5.566;2023-05-10T03:25:10;83.82;;;34.17;;
62268;SDS011;56517;51.634;5.566;2023-05-10T03:26:32;92.20;;;34.72;;
62268;SDS011;56517;51.634;5.566;2023-05-10T03:27:53;87.93;;;34.25;;
62268;SDS011;56517;51.634;5.566;2023-05-10T03:29:17;87.82;;;32.83;;
62268;SDS011;56517;51.634;5.566;2023-05-10T03:30:39;95.80;;;35.72;;
62268;SDS011;56517;51.634;5.566;2023-05-10T03:33:27;98.72;;;36.08;;
62268;SDS011;56517;51.634;5.566;2023-05-10T03:34:48;108.50;;;38.47;;
62268;SDS011;56517;51.634;5.566;2023-05-10T03:36:09;105.90;;;37.53;;
62268;SDS011;56517;51.634;5.566;2023-05-10T03:37:33;96.60;;;37.45;;
62268;SDS011;56517;51.634;5.566;2023-05-10T03:39:01;109.07;;;37.08;;
62268;SDS011;56517;51.634;5.566;2023-05-10T03:40:25;99.10;;;35.33;;
62268;SDS011;56517;51.634;5.566;2023-05-10T03:41:47;114.10;;;39.90;;
62268;SDS011;56517;51.634;5.566;2023-05-10T03:43:07;112.95;;;39.25;;
62268;SDS011;56517;51.634;5.566;2023-05-10T03:44:29;105.90;;;39.72;;
62268;SDS011;56517;51.634;5.566;2023-05-10T03:45:53;117.50;;;39.70;;
62268;SDS011;56517;51.634;5.566;2023-05-10T03:47:14;103.28;;;38.72;;
62268;SDS011;56517;51.634;5.566;2023-05-10T03:48:35;111.45;;;38.63;;
62268;SDS011;56517;51.634;5.566;2023-05-10T03:49:59;117.32;;;40.00;;
62268;SDS011;56517;51.634;5.566;2023-05-10T03:51:25;115.65;;;40.55;;
62268;SDS011;56517;51.634;5.566;2023-05-10T03:52:48;94.18;;;35.65;;
62268;SDS011;56517;51.634;5.566;2023-05-10T03:54:09;110.15;;;38.00;;
62268;SDS011;56517;51.634;5.566;2023-05-10T03:55:30;100.97;;;36.53;;
62268;SDS011;56517;51.634;5.566;2023-05-10T03:56:57;95.10;;;35.65;;
62268;SDS011;56517;51.634;5.566;2023-05-10T03:58:18;104.45;;;36.67;;
62268;SDS011;56517;51.634;5.566;2023-05-10T03:59:39;112.35;;;38.42;;
62268;SDS011;56517;51.634;5.566;2023-05-10T04:01:04;114.88;;;41.67;;
62268;SDS011;56517;51.634;5.566;2023-05-10T04:02:25;96.40;;;37.20;;
62268;SDS011;56517;51.634;5.566;2023-05-10T04:03:48;105.90;;;36.63;;
62268;SDS011;56517;51.634;5.566;2023-05-10T04:05:12;107.88;;;37.47;;
62268;SDS011;56517;51.634;5.566;2023-05-10T04:06:33;106.03;;;37.13;;
62268;SDS011;56517;51.634;5.566;2023-05-10T04:07:54;94.20;;;36.42;;
62268;SDS011;56517;51.634;5.566;2023-05-10T04:09:15;96.82;;;34.80;;
62268;SDS011;56517;51.634;5.566;2023-05-10T04:10:43;87.22;;;34.67;;
62268;SDS011;56517;51.634;5.566;2023-05-10T04:12:04;105.95;;;36.58;;
62268;SDS011;56517;51.634;5.566;2023-05-10T04:13:26;78.95;;;31.13;;
62268;SDS011;56517;51.634;5.566;2023-05-10T04:14:47;93.80;;;34.22;;
62268;SDS011;56517;51.634;5.566;2023-05-10T04:16:08;73.80;;;31.10;;
62268;SDS011;56517;51.634;5.566;2023-05-10T04:17:29;87.20;;;32.85;;
62268;SDS011;56517;51.634;5.566;2023-05-10T04:18:50;86.63;;;31.38;;
62268;SDS011;56517;51.634;5.566;2023-05-10T04:20:11;80.68;;;30.42;;
62268;SDS011;56517;51.634;5.566;2023-05-10T04:21:32;96.90;;;32.80;;
62268;SDS011;56517;51.634;5.566;2023-05-10T04:22:53;85.30;;;31.13;;
62268;SDS011;56517;51.634;5.566;2023-05-10T04:24:14;77.97;;;27.77;;
62268;SDS011;56517;51.634;5.566;2023-05-10T04:25:38;89.15;;;31.55;;
62268;SDS011;56517;51.634;5.566;2023-05-10T04:26:59;75.60;;;28.65;;
62268;SDS011;56517;51.634;5.566;2023-05-10T04:28:23;79.75;;;28.77;;
62268;SDS011;56517;51.634;5.566;2023-05-10T04:29:44;91.38;;;30.38;;
62268;SDS011;56517;51.634;5.566;2023-05-10T04:31:05;75.65;;;27.52;;
62268;SDS011;56517;51.634;5.566;2023-05-10T04:32:26;85.40;;;28.95;;
62268;SDS011;56517;51.634;5.566;2023-05-10T04:33:47;77.38;;;26.73;;
62268;SDS011;56517;51.634;5.566;2023-05-10T04:35:11;72.95;;;27.02;;
62268;SDS011;56517;51.634;5.566;2023-05-10T04:36:32;68.63;;;25.88;;
62268;SDS011;56517;51.634;5.566;2023-05-10T04:37:55;77.93;;;27.48;;
62268;SDS011;56517;51.634;5.566;2023-05-10T04:39:19;64.80;;;23.80;;
62268;SDS011;56517;51.634;5.566;2023-05-10T04:40:40;85.38;;;27.63;;
62268;SDS011;56517;51.634;5.566;2023-05-10T04:42:04;79.57;;;27.30;;
62268;SDS011;56517;51.634;5.566;2023-05-10T04:43:27;78.68;;;28.25;;
62268;SDS011;56517;51.634;5.566;2023-05-10T04:44:48;79.93;;;27.45;;
62268;SDS011;56517;51.634;5.566;2023-05-10T04:46:09;99.70;;;31.23;;
62268;SDS011;56517;51.634;5.566;2023-05-10T04:47:30;70.35;;;26.67;;
62268;SDS011;56517;51.634;5.566;2023-05-10T04:48:53;74.15;;;27.90;;
62268;SDS011;56517;51.634;5.566;2023-05-10T04:50:14;69.63;;;26.50;;
62268;SDS011;56517;51.634;5.566;2023-05-10T04:51:44;76.57;;;27.05;;
62268;SDS011;56517;51.634;5.566;2023-05-10T04:53:06;67.78;;;24.42;;
62268;SDS011;56517;51.634;5.566;2023-05-10T04:54:27;70.25;;;25.20;;
62268;SDS011;56517;51.634;5.566;2023-05-10T04:55:48;71.75;;;26.60;;
62268;SDS011;56517;51.634;5.566;2023-05-10T04:57:09;62.45;;;25.17;;
62268;SDS011;56517;51.634;5.566;2023-05-10T04:58:30;60.85;;;24.42;;
62268;SDS011;56517;51.634;5.566;2023-05-10T04:59:51;68.28;;;26.25;;
62268;SDS011;56517;51.634;5.566;2023-05-10T05:01:15;76.03;;;27.75;;
62268;SDS011;56517;51.634;5.566;2023-05-10T05:02:36;68.57;;;25.70;;
62268;SDS011;56517;51.634;5.566;2023-05-10T05:03:56;76.38;;;25.45;;
62268;SDS011;56517;51.634;5.566;2023-05-10T05:05:18;58.38;;;24.70;;
62268;SDS011;56517;51.634;5.566;2023-05-10T05:06:38;66.22;;;25.33;;
62268;SDS011;56517;51.634;5.566;2023-05-10T05:08:00;71.68;;;26.73;;
62268;SDS011;56517;51.634;5.566;2023-05-10T05:09:27;57.20;;;24.52;;
62268;SDS011;56517;51.634;5.566;2023-05-10T05:10:48;64.32;;;24.17;;
62268;SDS011;56517;51.634;5.566;2023-05-10T05:12:13;58.95;;;23.02;;
62268;SDS011;56517;51.634;5.566;2023-05-10T05:13:36;56.40;;;22.73;;
62268;SDS011;56517;51.634;5.566;2023-05-10T05:14:57;55.13;;;21.55;;
62268;SDS011;56517;51.634;5.566;2023-05-10T05:16:24;66.95;;;26.17;;
62268;SDS011;56517;51.634;5.566;2023-05-10T05:17:47;61.55;;;23.55;;
62268;SDS011;56517;51.634;5.566;2023-05-10T05:19:08;51.55;;;22.92;;
62268;SDS011;56517;51.634;5.566;2023-05-10T05:20:32;52.70;;;22.33;;
62268;SDS011;56517;51.634;5.566;2023-05-10T05:21:54;55.33;;;23.05;;
62268;SDS011;56517;51.634;5.566;2023-05-10T05:23:15;47.40;;;21.33;;
62268;SDS011;56517;51.634;5.566;2023-05-10T05:24:39;56.08;;;23.88;;
62268;SDS011;56517;51.634;5.566;2023-05-10T05:26:02;47.85;;;21.45;;
62268;SDS011;56517;51.634;5.566;2023-05-10T05:27:24;47.83;;;20.13;;
62268;SDS011;56517;51.634;5.566;2023-05-10T05:28:49;46.55;;;20.90;;
62268;SDS011;56517;51.634;5.566;2023-05-10T05:30:13;43.42;;;20.45;;
62268;SDS011;56517;51.634;5.566;2023-05-10T05:31:39;46.92;;;20.92;;
62268;SDS011;56517;51.634;5.566;2023-05-10T05:33:00;50.10;;;21.25;;
62268;SDS011;56517;51.634;5.566;2023-05-10T05:34:24;45.05;;;20.55;;
62268;SDS011;56517;51.634;5.566;2023-05-10T05:35:45;48.63;;;20.73;;
62268;SDS011;56517;51.634;5.566;2023-05-10T05:37:18;59.40;;;22.80;;
62268;SDS011;56517;51.634;5.566;2023-05-10T05:38:39;46.20;;;21.42;;
62268;SDS011;56517;51.634;5.566;2023-05-10T05:40:00;58.38;;;22.55;;
62268;SDS011;56517;51.634;5.566;2023-05-10T05:41:22;59.15;;;23.67;;
62268;SDS011;56517;51.634;5.566;2023-05-10T05:42:46;49.50;;;22.60;;
62268;SDS011;56517;51.634;5.566;2023-05-10T05:44:10;50.72;;;22.33;;
62268;SDS011;56517;51.634;5.566;2023-05-10T05:45:31;60.22;;;23.08;;
62268;SDS011;56517;51.634;5.566;2023-05-10T05:46:55;50.60;;;23.08;;
62268;SDS011;56517;51.634;5.566;2023-05-10T05:48:16;52.00;;;22.80;;
62268;SDS011;56517;51.634;5.566;2023-05-10T05:49:37;52.03;;;21.58;;
62268;SDS011;56517;51.634;5.566;2023-05-10T05:50:58;59.00;;;23.05;;
62268;SDS011;56517;51.634;5.566;2023-05-10T05:52:24;54.25;;;22.42;;
62268;SDS011;56517;51.634;5.566;2023-05-10T05:53:45;64.45;;;24.88;;
62268;SDS011;56517;51.634;5.566;2023-05-10T05:55:06;71.15;;;26.52;;
62268;SDS011;56517;51.634;5.566;2023-05-10T05:56:35;71.07;;;28.50;;
62268;SDS011;56517;51.634;5.566;2023-05-10T05:57:57;54.08;;;22.58;;
62268;SDS011;56517;51.634;5.566;2023-05-10T05:59:22;52.30;;;23.30;;
62268;SDS011;56517;51.634;5.566;2023-05-10T06:00:43;57.58;;;23.45;;
62268;SDS011;56517;51.634;5.566;2023-05-10T06:02:04;50.78;;;22.80;;
62268;SDS011;56517;51.634;5.566;2023-05-10T06:03:25;57.78;;;24.40;;
62268;SDS011;56517;51.634;5.566;2023-05-10T06:04:47;52.47;;;22.25;;
62268;SDS011;56517;51.634;5.566;2023-05-10T06:06:08;55.88;;;23.60;;
62268;SDS011;56517;51.634;5.566;2023-05-10T06:07:29;47.95;;;20.20;;
62268;SDS011;56517;51.634;5.566;2023-05-10T06:08:53;52.70;;;22.38;;
62268;SDS011;56517;51.634;5.566;2023-05-10T06:10:17;44.85;;;22.42;;
62268;SDS011;56517;51.634;5.566;2023-05-10T06:11:37;49.33;;;21.02;;
62268;SDS011;56517;51.634;5.566;2023-05-10T06:13:04;51.58;;;22.95;;
62268;SDS011;56517;51.634;5.566;2023-05-10T06:14:25;54.28;;;23.13;;
62268;SDS011;56517;51.634;5.566;2023-05-10T06:15:49;42.28;;;20.48;;
62268;SDS011;56517;51.634;5.566;2023-05-10T06:17:10;49.53;;;21.00;;
62268;SDS011;56517;51.634;5.566;2023-05-10T06:18:31;51.10;;;23.02;;
62268;SDS011;56517;51.634;5.566;2023-05-10T06:19:52;48.35;;;21.27;;
62268;SDS011;56517;51.634;5.566;2023-05-10T06:21:17;54.50;;;22.75;;
62268;SDS011;56517;51.634;5.566;2023-05-10T06:22:38;49.42;;;22.02;;
62268;SDS011;56517;51.634;5.566;2023-05-10T06:24:01;45.17;;;22.15;;
62268;SDS011;56517;51.634;5.566;2023-05-10T06:25:25;48.75;;;21.80;;
62268;SDS011;56517;51.634;5.566;2023-05-10T06:26:46;52.45;;;22.45;;
62268;SDS011;56517;51.634;5.566;2023-05-10T06:28:10;48.35;;;19.83;;
62268;SDS011;56517;51.634;5.566;2023-05-10T06:29:33;48.63;;;21.42;;
62268;SDS011;56517;51.634;5.566;2023-05-10T06:30:59;45.88;;;22.00;;
62268;SDS011;56517;51.634;5.566;2023-05-10T06:32:20;44.33;;;20.20;;
62268;SDS011;56517;51.634;5.566;2023-05-10T06:33:41;48.13;;;22.45;;
62268;SDS011;56517;51.634;5.566;2023-05-10T06:35:05;47.97;;;19.85;;
62268;SDS011;56517;51.634;5.566;2023-05-10T06:36:26;46.33;;;22.20;;
62268;SDS011;56517;51.634;5.566;2023-05-10T06:37:50;41.55;;;20.33;;
62268;SDS011;56517;51.634;5.566;2023-05-10T06:39:11;47.47;;;20.45;;
62268;SDS011;56517;51.634;5.566;2023-05-10T06:40:32;42.42;;;19.40;;
62268;SDS011;56517;51.634;5.566;2023-05-10T06:41:53;42.22;;;21.02;;
62268;SDS011;56517;51.634;5.566;2023-05-10T06:43:15;43.03;;;20.13;;
62268;SDS011;56517;51.634;5.566;2023-05-10T06:44:37;47.25;;;21.67;;
62268;SDS011;56517;51.634;5.566;2023-05-10T06:45:58;43.78;;;20.88;;
62268;SDS011;56517;51.634;5.566;2023-05-10T06:47:24;49.30;;;21.15;;
62268;SDS011;56517;51.634;5.566;2023-05-10T06:48:45;48.30;;;22.95;;
62268;SDS011;56517;51.634;5.566;2023-05-10T06:50:09;48.03;;;20.63;;
62268;SDS011;56517;51.634;5.566;2023-05-10T06:51:38;42.85;;;20.27;;
62268;SDS011;56517;51.634;5.566;2023-05-10T06:52:59;53.83;;;21.50;;
62268;SDS011;56517;51.634;5.566;2023-05-10T06:54:20;43.65;;;21.27;;
62268;SDS011;56517;51.634;5.566;2023-05-10T06:55:41;50.50;;;22.15;;
62268;SDS011;56517;51.634;5.566;2023-05-10T06:57:02;44.78;;;21.52;;
62268;SDS011;56517;51.634;5.566;2023-05-10T06:58:23;45.75;;;22.13;;
62268;SDS011;56517;51.634;5.566;2023-05-10T06:59:47;62.25;;;22.77;;
62268;SDS011;56517;51.634;5.566;2023-05-10T07:01:12;50.55;;;21.88;;
62268;SDS011;56517;51.634;5.566;2023-05-10T07:02:35;49.97;;;21.20;;
62268;SDS011;56517;51.634;5.566;2023-05-10T07:03:59;46.33;;;21.63;;
62268;SDS011;56517;51.634;5.566;2023-05-10T07:05:20;48.20;;;22.23;;
62268;SDS011;56517;51.634;5.566;2023-05-10T07:06:43;60.63;;;24.08;;
62268;SDS011;56517;51.634;5.566;2023-05-10T07:08:06;43.95;;;21.52;;
62268;SDS011;56517;51.634;5.566;2023-05-10T07:09:28;46.43;;;21.67;;
62268;SDS011;56517;51.634;5.566;2023-05-10T07:10:49;56.08;;;22.73;;
62268;SDS011;56517;51.634;5.566;2023-05-10T07:12:13;48.63;;;22.45;;
62268;SDS011;56517;51.634;5.566;2023-05-10T07:13:34;49.00;;;21.38;;
62268;SDS011;56517;51.634;5.566;2023-05-10T07:14:55;49.90;;;22.98;;
62268;SDS011;56517;51.634;5.566;2023-05-10T07:16:16;47.63;;;23.23;;
62268;SDS011;56517;51.634;5.566;2023-05-10T07:17:39;54.55;;;22.30;;
62268;SDS011;56517;51.634;5.566;2023-05-10T07:19:00;55.30;;;22.95;;
62268;SDS011;56517;51.634;5.566;2023-05-10T07:20:21;45.65;;;22.52;;
62268;SDS011;56517;51.634;5.566;2023-05-10T07:21:42;42.60;;;21.13;;
62268;SDS011;56517;51.634;5.566;2023-05-10T07:23:03;43.83;;;22.10;;
62268;SDS011;56517;51.634;5.566;2023-05-10T07:24:29;51.35;;;22.83;;
62268;SDS011;56517;51.634;5.566;2023-05-10T07:25:50;47.58;;;22.30;;
62268;SDS011;56517;51.634;5.566;2023-05-10T07:27:14;48.05;;;22.17;;
62268;SDS011;56517;51.634;5.566;2023-05-10T07:28:36;43.35;;;21.63;;
62268;SDS011;56517;51.634;5.566;2023-05-10T07:30:00;47.70;;;23.35;;
62268;SDS011;56517;51.634;5.566;2023-05-10T07:31:21;43.28;;;22.08;;
62268;SDS011;56517;51.634;5.566;2023-05-10T07:32:44;46.65;;;22.00;;
62268;SDS011;56517;51.634;5.566;2023-05-10T07:34:05;48.45;;;22.55;;
62268;SDS011;56517;51.634;5.566;2023-05-10T07:35:26;56.90;;;25.90;;
62268;SDS011;56517;51.634;5.566;2023-05-10T07:36:47;61.47;;;25.05;;
62268;SDS011;56517;51.634;5.566;2023-05-10T07:38:09;48.20;;;23.30;;
62268;SDS011;56517;51.634;5.566;2023-05-10T07:40:52;50.47;;;22.23;;
62268;SDS011;56517;51.634;5.566;2023-05-10T07:42:13;45.50;;;23.73;;
62268;SDS011;56517;51.634;5.566;2023-05-10T07:43:34;53.42;;;25.83;;
62268;SDS011;56517;51.634;5.566;2023-05-10T07:44:55;50.92;;;24.08;;
62268;SDS011;56517;51.634;5.566;2023-05-10T07:46:16;49.97;;;24.10;;
62268;SDS011;56517;51.634;5.566;2023-05-10T07:47:37;46.88;;;22.98;;
62268;SDS011;56517;51.634;5.566;2023-05-10T07:48:58;45.47;;;22.08;;
62268;SDS011;56517;51.634;5.566;2023-05-10T07:50:19;44.45;;;21.50;;
62268;SDS011;56517;51.634;5.566;2023-05-10T07:51:41;46.67;;;21.23;;
62268;SDS011;56517;51.634;5.566;2023-05-10T07:53:03;39.85;;;19.92;;
62268;SDS011;56517;51.634;5.566;2023-05-10T07:54:24;41.83;;;20.58;;
62268;SDS011;56517;51.634;5.566;2023-05-10T07:55:49;45.95;;;22.52;;
62268;SDS011;56517;51.634;5.566;2023-05-10T07:57:10;48.42;;;22.40;;
62268;SDS011;56517;51.634;5.566;2023-05-10T07:58:31;50.35;;;22.25;;
62268;SDS011;56517;51.634;5.566;2023-05-10T07:59:52;48.25;;;21.85;;
62268;SDS011;56517;51.634;5.566;2023-05-10T08:01:16;48.30;;;23.17;;
62268;SDS011;56517;51.634;5.566;2023-05-10T08:02:37;50.00;;;20.95;;
62268;SDS011;56517;51.634;5.566;2023-05-10T08:03:58;45.72;;;21.58;;
62268;SDS011;56517;51.634;5.566;2023-05-10T08:05:20;51.88;;;23.45;;
62268;SDS011;56517;51.634;5.566;2023-05-10T08:06:41;43.90;;;22.70;;
62268;SDS011;56517;51.634;5.566;2023-05-10T08:08:02;53.85;;;22.42;;
62268;SDS011;56517;51.634;5.566;2023-05-10T08:09:23;43.80;;;20.92;;
62268;SDS011;56517;51.634;5.566;2023-05-10T08:10:44;49.87;;;23.57;;
62268;SDS011;56517;51.634;5.566;2023-05-10T08:12:05;43.97;;;21.45;;
62268;SDS011;56517;51.634;5.566;2023-05-10T08:13:29;41.95;;;21.27;;
62268;SDS011;56517;51.634;5.566;2023-05-10T08:14:50;45.63;;;22.23;;
62268;SDS011;56517;51.634;5.566;2023-05-10T08:16:13;45.00;;;22.03;;
62268;SDS011;56517;51.634;5.566;2023-05-10T08:17:37;42.65;;;20.70;;
62268;SDS011;56517;51.634;5.566;2023-05-10T08:18:58;40.38;;;20.50;;
62268;SDS011;56517;51.634;5.566;2023-05-10T08:20:25;39.22;;;20.17;;
62268;SDS011;56517;51.634;5.566;2023-05-10T08:21:46;41.78;;;21.10;;
62268;SDS011;56517;51.634;5.566;2023-05-10T08:23:07;43.38;;;21.58;;
62268;SDS011;56517;51.634;5.566;2023-05-10T08:24:28;36.95;;;20.73;;
62268;SDS011;56517;51.634;5.566;2023-05-10T08:25:51;40.63;;;20.50;;
62268;SDS011;56517;51.634;5.566;2023-05-10T08:27:12;39.65;;;19.90;;
62268;SDS011;56517;51.634;5.566;2023-05-10T08:28:34;40.33;;;19.88;;
62268;SDS011;56517;51.634;5.566;2023-05-10T08:29:59;37.83;;;18.17;;
62268;SDS011;56517;51.634;5.566;2023-05-10T08:31:23;37.65;;;20.27;;
62268;SDS011;56517;51.634;5.566;2023-05-10T08:32:44;42.63;;;20.73;;
62268;SDS011;56517;51.634;5.566;2023-05-10T08:34:05;39.70;;;19.17;;
62268;SDS011;56517;51.634;5.566;2023-05-10T08:35:26;41.13;;;19.83;;